Time;durP1;ratioP1;P1;durP2;ratioP2;P2;SDS_P1;SDS_P2;PMS_P1;PMS_P2;Temp;Humidity;BMP_temperature;BMP_pressure;BME280_temperature;BME280_humidity;BME280_pressure;Samples;Min_cycle;Max_cycle;Signal;HPM_P1;HPM_P2
2023/01/16 00:29:21;;;;;;;4.40;1.58;;;4.90;99.90;;;;;;6318027;22;20609;-91
2023/01/16 00:31:47;;;;;;;5.90;1.53;;;4.90;99.90;;;;;;6263186;22;20023;-91
2023/01/16 00:34:12;;;;;;;3.67;1.60;;;4.90;99.90;;;;;;6263643;22;20011;-93
2023/01/16 00:36:39;;;;;;;4.70;1.90;;;4.90;99.90;;;;;;6237991;22;20026;-89
2023/01/16 00:39:05;;;;;;;4.72;1.90;;;4.90;99.90;;;;;;6236622;22;20065;-91
2023/01/16 00:41:31;;;;;;;5.68;1.92;;;4.90;99.90;;;;;;6237948;22;20015;-90
2023/01/16 00:43:58;;;;;;;4.13;1.83;;;4.90;99.90;;;;;;6262982;22;20467;-93
2023/01/16 00:49:00;;;;;;;4.97;2.08;;;4.90;99.90;;;;;;6313480;22;20020;-92
2023/01/16 00:51:48;;;;;;;6.73;1.43;;;4.90;99.90;;;;;;6260800;22;20148;-93
2023/01/16 00:54:14;;;;;;;4.55;1.75;;;4.80;99.90;;;;;;6261146;22;20012;-91
2023/01/16 00:57:18;;;;;;;3.60;1.47;;;4.80;99.90;;;;;;6261464;22;20009;-92
2023/01/16 00:59:44;;;;;;;2.95;1.35;;;4.80;99.90;;;;;;6260933;22;20405;-92
2023/01/16 01:02:10;;;;;;;3.13;1.33;;;4.70;99.90;;;;;;6260404;22;20016;-91
2023/01/16 01:04:36;;;;;;;3.37;1.20;;;4.70;99.90;;;;;;6235502;22;20026;-92
2023/01/16 01:07:02;;;;;;;3.80;1.70;;;4.70;99.90;;;;;;6261062;22;20015;-92
2023/01/16 01:09:28;;;;;;;4.07;1.33;;;4.70;99.90;;;;;;6260226;22;20019;-94
2023/01/16 01:11:57;;;;;;;3.33;1.03;;;4.70;99.90;;;;;;6263219;22;20008;-91
2023/01/16 01:14:30;;;;;;;2.55;1.02;;;4.60;99.90;;;;;;6262171;22;20016;-90
2023/01/16 01:16:56;;;;;;;2.90;1.20;;;4.60;99.90;;;;;;6264441;22;20432;-91
2023/01/16 01:19:22;;;;;;;4.33;1.53;;;4.60;99.90;;;;;;6261923;22;20022;-92
2023/01/16 01:21:48;;;;;;;2.70;1.00;;;4.60;99.90;;;;;;6260702;22;20090;-92
2023/01/16 01:24:17;;;;;;;3.57;1.00;;;4.50;99.90;;;;;;6261358;22;20095;-92
2023/01/16 01:26:43;;;;;;;2.33;0.90;;;4.50;99.90;;;;;;6262066;22;20019;-91
2023/01/16 01:29:09;;;;;;;2.87;0.93;;;4.50;99.90;;;;;;6236535;22;20015;-94
2023/01/16 01:31:36;;;;;;;1.80;0.70;;;4.40;99.90;;;;;;6207629;22;20016;-92
2023/01/16 01:34:01;;;;;;;4.65;1.08;;;4.50;99.90;;;;;;6231956;22;20019;-91
2023/01/16 01:36:27;;;;;;;1.63;0.90;;;4.40;99.90;;;;;;6231417;22;20038;-93
2023/01/16 01:38:53;;;;;;;2.00;0.67;;;4.50;99.90;;;;;;6229510;22;20453;-92
2023/01/16 01:41:19;;;;;;;2.63;1.00;;;4.50;99.90;;;;;;6205016;22;20428;-93
2023/01/16 01:43:53;;;;;;;3.70;1.10;;;4.50;99.90;;;;;;6254033;22;20015;-92
2023/01/16 01:46:42;;;;;;;3.53;1.15;;;4.50;99.90;;;;;;6231833;22;20012;-92
2023/01/16 01:49:35;;;;;;;1.85;0.90;;;4.40;99.90;;;;;;6230049;22;20043;-91
2023/01/16 01:55:45;;;;;;;2.63;0.80;;;4.40;99.90;;;;;;6071949;22;20056;-93
2023/01/16 02:03:32;;;;;;;3.53;1.15;;;4.30;99.90;;;;;;6313649;22;20019;-92
2023/01/16 02:06:02;;;;;;;3.95;0.90;;;4.30;99.90;;;;;;6260987;22;20023;-92
2023/01/16 02:08:31;;;;;;;2.15;0.80;;;4.30;99.90;;;;;;6260870;22;20141;-92
2023/01/16 02:21:35;;;;;;;2.35;0.80;;;4.20;99.90;;;;;;6318285;22;20019;-93
2023/01/16 02:27:12;;;;;;;2.15;0.80;;;4.20;99.90;;;;;;6315860;22;20744;-90
2023/01/16 02:30:02;;;;;;;3.22;0.90;;;4.20;99.90;;;;;;6313740;22;20019;-91
2023/01/16 02:32:49;;;;;;;3.28;0.90;;;4.20;99.90;;;;;;6262709;22;20053;-91
2023/01/16 02:40:37;;;;;;;2.72;0.82;;;4.20;99.90;;;;;;6314124;22;20023;-90
2023/01/16 02:43:09;;;;;;;2.50;0.90;;;4.30;99.90;;;;;;6261031;22;20015;-90
2023/01/16 02:46:09;;;;;;;4.15;0.80;;;4.30;99.90;;;;;;6261037;22;20019;-90
2023/01/16 02:49:02;;;;;;;1.85;0.70;;;4.20;99.90;;;;;;6262471;22;20519;-93
2023/01/16 02:51:59;;;;;;;2.83;0.90;;;4.30;99.90;;;;;;6262796;22;20023;-92
2023/01/16 02:54:53;;;;;;;3.08;1.00;;;4.30;99.90;;;;;;6264434;22;20072;-91
2023/01/16 02:57:46;;;;;;;4.07;1.00;;;4.30;99.90;;;;;;6263999;22;20061;-92
2023/01/16 03:02:47;;;;;;;5.13;1.20;;;4.30;99.90;;;;;;6315799;22;20003;-91
2023/01/16 03:08:25;;;;;;;4.80;0.70;;;4.30;99.90;;;;;;6316000;22;20089;-92
2023/01/16 03:11:24;;;;;;;1.92;0.70;;;4.30;99.90;;;;;;6290835;22;20023;-91
2023/01/16 03:14:07;;;;;;;1.70;0.70;;;4.40;99.90;;;;;;6265628;22;20016;-92
2023/01/16 03:16:53;;;;;;;3.28;0.85;;;4.40;99.90;;;;;;6262088;22;20026;-92
2023/01/16 03:19:50;;;;;;;1.40;0.63;;;4.40;99.90;;;;;;6263199;22;20453;-93
2023/01/16 03:23:02;;;;;;;2.83;1.00;;;4.40;99.90;;;;;;6287927;22;20015;-93
2023/01/16 03:26:05;;;;;;;2.42;0.80;;;4.40;99.90;;;;;;6231992;22;20021;-92
2023/01/16 03:28:57;;;;;;;2.28;0.77;;;4.40;99.90;;;;;;6265744;22;20049;-92
2023/01/16 03:31:52;;;;;;;1.80;0.73;;;4.40;99.90;;;;;;6263171;22;20027;-92
2023/01/16 03:34:30;;;;;;;2.08;0.60;;;4.40;99.90;;;;;;6263482;22;20041;-91
2023/01/16 03:37:06;;;;;;;4.45;0.98;;;4.30;99.90;;;;;;6290148;22;20011;-92
2023/01/16 03:39:39;;;;;;;4.28;1.00;;;4.30;99.90;;;;;;6263016;22;20023;-92
2023/01/16 03:44:47;;;;;;;2.28;0.70;;;4.30;99.90;;;;;;6315615;22;20329;-93
2023/01/16 03:47:21;;;;;;;2.47;0.95;;;4.30;99.90;;;;;;6264701;22;20020;-92
2023/01/16 03:49:53;;;;;;;2.22;0.80;;;4.30;99.90;;;;;;6262996;22;20023;-91
2023/01/16 03:52:26;;;;;;;1.80;0.60;;;4.30;99.90;;;;;;6264823;22;20070;-91
2023/01/16 04:05:33;;;;;;;1.90;0.55;;;4.10;99.90;;;;;;6313307;22;20041;-92
2023/01/16 04:08:28;;;;;;;2.88;0.63;;;4.10;99.90;;;;;;6261491;22;20471;-92
2023/01/16 04:18:36;;;;;;;2.53;0.73;;;3.90;99.90;;;;;;6315292;22;20096;-92
2023/01/16 04:21:07;;;;;;;1.58;0.60;;;4.00;99.90;;;;;;6263641;22;20471;-91
2023/01/16 04:23:33;;;;;;;2.75;0.88;;;4.00;99.90;;;;;;6262226;22;20015;-91
2023/01/16 04:26:02;;;;;;;2.20;1.00;;;4.00;99.90;;;;;;6262294;22;20026;-92
2023/01/16 04:39:50;;;;;;;2.72;0.80;;;4.20;99.90;;;;;;6312850;22;20030;-92
2023/01/16 04:42:16;;;;;;;4.60;1.02;;;4.20;99.90;;;;;;6263406;22;20325;-92
2023/01/16 04:44:42;;;;;;;2.90;1.00;;;4.30;99.90;;;;;;6262057;22;20019;-92
2023/01/16 04:47:08;;;;;;;2.75;1.10;;;4.30;99.90;;;;;;6262881;22;20023;-93
2023/01/16 04:50:01;;;;;;;4.23;1.20;;;4.30;99.90;;;;;;6260857;22;20094;-93
2023/01/16 04:52:27;;;;;;;2.53;1.17;;;4.30;99.90;;;;;;6255713;22;20356;-93
2023/01/16 04:54:56;;;;;;;4.47;1.17;;;4.40;99.90;;;;;;6263448;22;20012;-93
2023/01/16 04:57:21;;;;;;;3.87;1.30;;;4.40;99.90;;;;;;6260545;22;20049;-91
2023/01/16 04:59:47;;;;;;;2.83;0.90;;;4.40;99.90;;;;;;6260868;22;20019;-92
2023/01/16 05:02:13;;;;;;;3.03;1.10;;;4.40;99.90;;;;;;6262045;22;20065;-92
2023/01/16 05:04:52;;;;;;;3.92;1.48;;;4.40;99.90;;;;;;6286760;22;20062;-91
2023/01/16 05:07:18;;;;;;;3.33;1.02;;;4.40;99.90;;;;;;6260454;22;20107;-92
2023/01/16 05:20:06;;;;;;;3.80;1.48;;;4.50;99.90;;;;;;6283003;22;20030;-90
2023/01/16 05:22:32;;;;;;;4.68;1.80;;;4.50;99.90;;;;;;6206781;22;20046;-91
2023/01/16 05:24:58;;;;;;;4.40;1.65;;;4.50;99.90;;;;;;6206912;22;20023;-91
2023/01/16 05:27:24;;;;;;;5.13;1.67;;;4.50;99.90;;;;;;6232491;22;20027;-91
2023/01/16 05:29:49;;;;;;;3.87;1.40;;;4.50;99.90;;;;;;6231915;22;20065;-90
2023/01/16 05:32:15;;;;;;;5.27;2.10;;;4.50;99.90;;;;;;6229609;22;20055;-91
2023/01/16 05:34:41;;;;;;;4.20;1.40;;;4.40;99.90;;;;;;6229232;22;20046;-91
2023/01/16 05:53:31;;;;;;;3.72;1.58;;;4.20;99.90;;;;;;6308658;22;20019;-96
2023/01/16 05:56:49;;;;;;;3.92;1.55;;;4.10;99.90;;;;;;6257661;22;20097;-92
2023/01/16 05:59:16;;;;;;;3.30;1.63;;;4.10;99.90;;;;;;6283190;22;20015;-93
2023/01/16 06:01:41;;;;;;;3.60;1.47;;;4.00;99.90;;;;;;6257266;22;20019;-91
2023/01/16 06:04:07;;;;;;;4.03;1.67;;;3.90;99.90;;;;;;6257910;22;20041;-93
2023/01/16 06:06:33;;;;;;;4.70;1.97;;;3.90;99.90;;;;;;6257549;22;20020;-90
2023/01/16 06:08:58;;;;;;;4.43;1.70;;;3.90;99.90;;;;;;6231987;22;20066;-91
2023/01/16 06:15:30;;;;;;;;;;;3.80;99.90;;;;;;6310205;22;20010;-90
2023/01/16 06:17:59;;;;;;;4.80;1.88;;;3.70;99.90;;;;;;6286936;22;19976;-91
2023/01/16 06:20:25;;;;;;;5.50;2.10;;;3.70;99.90;;;;;;6238720;22;20015;-89
2023/01/16 06:22:50;;;;;;;5.40;1.73;;;3.60;99.90;;;;;;6267462;22;20011;-91
2023/01/16 06:25:38;;;;;;;4.63;1.90;;;3.60;99.90;;;;;;6290050;22;20026;-91
2023/01/16 06:28:04;;;;;;;6.35;2.28;;;3.60;99.90;;;;;;6266831;22;20019;-91
2023/01/16 06:30:29;;;;;;;4.90;2.30;;;3.60;99.90;;;;;;6238713;22;20086;-91
2023/01/16 06:53:38;;;;;;;7.65;3.67;;;3.50;99.90;;;;;;6325183;22;20033;-91
2023/01/16 07:32:42;;;;;;;10.15;3.53;;;3.70;99.90;;;;;;6269977;23;20060;-92
2023/01/16 07:35:09;;;;;;;6.47;2.85;;;3.70;99.90;;;;;;6192235;23;20047;-90
2023/01/16 07:37:45;;;;;;;6.82;3.08;;;3.70;99.90;;;;;;6247007;23;20093;-90
2023/01/16 07:40:16;;;;;;;9.15;2.88;;;3.70;99.90;;;;;;6210133;23;20468;-90
2023/01/16 07:42:43;;;;;;;7.60;3.10;;;3.70;99.90;;;;;;6219769;23;20004;-90
2023/01/16 07:45:09;;;;;;;6.53;2.88;;;3.70;99.90;;;;;;6219971;23;20457;-90
2023/01/16 07:47:40;;;;;;;6.27;2.93;;;3.70;99.90;;;;;;6195700;23;20012;-90
2023/01/16 08:08:18;;;;;;;6.22;2.60;;;3.50;99.90;;;;;;6321644;22;20463;-90
2023/01/16 08:25:04;;;;;;;8.80;2.80;;;3.40;99.90;;;;;;6322001;22;20020;-91
2023/01/16 08:37:52;;;;;;;7.28;2.25;;;3.50;99.90;;;;;;6321570;22;20023;-89
2023/01/16 08:40:21;;;;;;;7.57;2.50;;;3.50;99.90;;;;;;6267488;22;20027;-89
2023/01/16 09:32:37;;;;;;;5.03;1.65;;;3.80;99.90;;;;;;6311159;22;20023;-90
2023/01/16 09:35:11;;;;;;;7.18;2.58;;;3.90;99.90;;;;;;6272099;22;20015;-90
2023/01/16 09:37:52;;;;;;;5.20;2.20;;;3.90;99.90;;;;;;6299577;22;19999;-90
2023/01/16 09:41:01;;;;;;;4.60;1.73;;;3.90;99.90;;;;;;6248754;22;20126;-93
2023/01/16 09:51:34;;;;;;;5.50;1.67;;;4.00;99.90;;;;;;6317594;22;20042;-89
2023/01/16 10:00:22;;;;;;;5.57;2.13;;;4.00;99.90;;;;;;6287640;22;20076;-91
2023/01/16 10:02:47;;;;;;;3.85;1.60;;;4.00;99.90;;;;;;6262620;22;20463;-92
2023/01/16 10:34:04;;;;;;;3.83;1.30;;;4.20;99.90;;;;;;6312650;22;20027;-90
2023/01/16 10:36:42;;;;;;;6.45;1.75;;;4.20;99.90;;;;;;6263473;22;20015;-88
2023/01/16 10:39:19;;;;;;;2.78;1.30;;;4.30;99.90;;;;;;6261448;22;20015;-90
2023/01/16 10:51:16;;;;;;;3.47;1.30;;;4.20;99.90;;;;;;6287501;22;20023;-90
2023/01/16 10:54:12;;;;;;;3.15;1.38;;;4.20;99.90;;;;;;6264476;22;20073;-89
2023/01/16 11:09:45;;;;;;;3.83;1.00;;;4.20;99.90;;;;;;6311399;22;20345;-90
2023/01/16 13:13:21;;;;;;;1.73;0.70;;;4.10;99.90;;;;;;6317692;22;20102;-89
2023/01/16 13:15:59;;;;;;;1.88;0.60;;;4.10;99.90;;;;;;6295266;22;20007;-90
2023/01/16 13:18:48;;;;;;;1.67;0.80;;;4.10;99.90;;;;;;6269410;22;20015;-90
2023/01/16 16:21:22;;;;;;;3.28;1.10;;;4.50;99.90;;;;;;6320062;22;20055;-92
2023/01/16 16:27:02;;;;;;;2.58;1.13;;;4.50;99.90;;;;;;6280777;22;20061;-93
2023/01/16 18:17:32;;;;;;;4.13;1.80;;;4.30;99.90;;;;;;6268905;22;20027;-93
2023/01/16 18:20:01;;;;;;;4.85;1.90;;;4.30;99.90;;;;;;6264572;22;20051;-92
2023/01/16 18:22:34;;;;;;;5.35;1.70;;;4.30;99.90;;;;;;6237313;22;20467;-89
2023/01/16 18:25:08;;;;;;;4.82;2.03;;;4.30;99.90;;;;;;6283457;22;20020;-89
2023/01/16 20:36:56;;;;;;;4.47;1.55;;;4.00;99.90;;;;;;6310186;22;20027;-91
2023/01/16 20:39:22;;;;;;;4.75;1.70;;;3.90;99.90;;;;;;6258167;22;20024;-91
2023/01/16 22:18:59;;;;;;;4.38;1.70;;;3.10;99.90;;;;;;6322460;22;20035;-90
2023/01/16 22:21:36;;;;;;;3.90;1.33;;;3.10;99.90;;;;;;6270386;22;20019;-88
2023/01/16 22:24:05;;;;;;;3.75;1.55;;;3.10;99.90;;;;;;6267601;22;20011;-90
2023/01/16 22:26:35;;;;;;;4.43;1.90;;;3.10;99.90;;;;;;6272573;22;20019;-89
2023/01/16 22:29:01;;;;;;;3.97;1.35;;;3.10;99.90;;;;;;6323793;22;20238;-89
2023/01/16 22:31:26;;;;;;;4.30;1.40;;;3.10;99.90;;;;;;6321832;22;20019;-89
2023/01/16 22:34:10;;;;;;;2.90;1.00;;;3.10;99.90;;;;;;6319523;22;20428;-89
2023/01/16 22:39:13;;;;;;;2.63;0.80;;;3.20;99.90;;;;;;6323118;22;20019;-91
2023/01/16 22:41:45;;;;;;;2.63;0.90;;;3.20;99.90;;;;;;6325209;22;20023;-90
2023/01/16 22:47:10;;;;;;;2.72;1.00;;;3.30;99.90;;;;;;6275790;22;20015;-90
2023/01/16 22:49:43;;;;;;;2.70;0.80;;;3.30;99.90;;;;;;6272664;22;20015;-88
2023/01/16 22:52:22;;;;;;;3.03;1.02;;;3.40;99.90;;;;;;6247157;22;20016;-89
2023/01/16 22:54:55;;;;;;;2.50;1.00;;;3.40;99.90;;;;;;6299117;22;20043;-88
2023/01/16 22:57:22;;;;;;;2.83;0.90;;;3.40;99.90;;;;;;6297321;22;20042;-90
2023/01/16 23:00:10;;;;;;;2.13;0.90;;;3.40;99.90;;;;;;6246239;22;20019;-90
2023/01/16 23:02:48;;;;;;;2.35;0.75;;;3.50;99.90;;;;;;6296761;22;20046;-89
2023/01/16 23:05:15;;;;;;;1.40;0.70;;;3.50;99.90;;;;;;6263820;22;20063;-89
2023/01/16 23:07:42;;;;;;;2.13;0.90;;;3.50;99.90;;;;;;6289051;22;20067;-88
2023/01/16 23:10:11;;;;;;;1.90;0.60;;;3.50;99.90;;;;;;6260142;22;20015;-90
2023/01/16 23:12:39;;;;;;;4.18;0.77;;;3.60;99.90;;;;;;6260751;22;20019;-89
2023/01/16 23:15:06;;;;;;;1.08;0.35;;;3.60;99.90;;;;;;6216644;22;20011;-92
2023/01/16 23:17:44;;;;;;;0.20;0.10;;;3.70;99.90;;;;;;6265218;22;20046;-90
2023/01/16 23:20:13;;;;;;;0.85;0.08;;;3.70;99.90;;;;;;6262536;22;20081;-90
2023/01/16 23:22:50;;;;;;;0.20;0.10;;;3.80;99.90;;;;;;6264350;22;20094;-87
2023/01/16 23:25:16;;;;;;;0.17;0.10;;;3.80;99.90;;;;;;6262726;22;20012;-89
2023/01/16 23:27:44;;;;;;;0.38;0.00;;;3.80;99.90;;;;;;6287002;22;20024;-88
2023/01/16 23:30:19;;;;;;;0.10;0.00;;;3.80;99.90;;;;;;6241256;22;20063;-93
2023/01/16 23:32:46;;;;;;;0.00;0.00;;;3.80;99.90;;;;;;6214760;22;20126;-90
2023/01/16 23:35:12;;;;;;;0.00;0.00;;;3.80;99.90;;;;;;6268491;22;20028;-89
2023/01/16 23:37:37;;;;;;;0.40;0.00;;;3.90;99.90;;;;;;6246955;22;20011;-89
2023/01/16 23:45:55;;;;;;;0.38;0.00;;;3.90;99.90;;;;;;6237553;23;20031;-87
2023/01/16 23:48:21;;;;;;;0.10;0.00;;;3.90;99.90;;;;;;6212716;23;20023;-87
2023/01/16 23:51:10;;;;;;;0.60;0.08;;;3.90;99.90;;;;;;6237941;23;20027;-89
2023/01/16 23:53:38;;;;;;;0.10;0.00;;;3.90;99.90;;;;;;6186861;23;20016;-89
2023/01/16 23:56:06;;;;;;;0.40;0.10;;;3.90;99.90;;;;;;6189626;23;20020;-90
2023/01/16 23:59:16;;;;;;;0.30;0.10;;;3.90;99.90;;;;;;6183066;23;20022;-88
